sensor_id;sensor_type;location;lat;lon;timestamp;P1;durP1;ratioP1;P2;durP2;ratioP2
1402;SDS011;696;48.546;9.896;2024-03-02T00:02:10;0.22;;;0.22;;
1402;SDS011;696;48.546;9.896;2024-03-02T00:04:36;0.22;;;0.22;;
1402;SDS011;696;48.546;9.896;2024-03-02T00:07:02;0.30;;;0.30;;
1402;SDS011;696;48.546;9.896;2024-03-02T00:09:27;0.30;;;0.30;;
1402;SDS011;696;48.546;9.896;2024-03-02T00:11:54;0.22;;;0.22;;
1402;SDS011;696;48.546;9.896;2024-03-02T00:14:19;0.32;;;0.32;;
1402;SDS011;696;48.546;9.896;2024-03-02T00:16:45;0.30;;;0.30;;
1402;SDS011;696;48.546;9.896;2024-03-02T00:19:11;0.28;;;0.28;;
1402;SDS011;696;48.546;9.896;2024-03-02T00:21:36;0.30;;;0.30;;
1402;SDS011;696;48.546;9.896;2024-03-02T00:24:04;0.30;;;0.30;;
1402;SDS011;696;48.546;9.896;2024-03-02T00:26:48;0.25;;;0.25;;
1402;SDS011;696;48.546;9.896;2024-03-02T00:29:17;0.22;;;0.22;;
1402;SDS011;696;48.546;9.896;2024-03-02T00:31:44;0.30;;;0.30;;
1402;SDS011;696;48.546;9.896;2024-03-02T00:34:09;0.20;;;0.20;;
1402;SDS011;696;48.546;9.896;2024-03-02T00:36:37;0.30;;;0.30;;
1402;SDS011;696;48.546;9.896;2024-03-02T00:39:03;0.30;;;0.30;;
1402;SDS011;696;48.546;9.896;2024-03-02T00:41:31;0.20;;;0.20;;
1402;SDS011;696;48.546;9.896;2024-03-02T00:44:04;0.20;;;0.20;;
1402;SDS011;696;48.546;9.896;2024-03-02T00:49:00;0.30;;;0.30;;
1402;SDS011;696;48.546;9.896;2024-03-02T00:51:27;0.30;;;0.30;;
1402;SDS011;696;48.546;9.896;2024-03-02T00:53:53;0.30;;;0.30;;
1402;SDS011;696;48.546;9.896;2024-03-02T00:56:21;0.30;;;0.30;;
1402;SDS011;696;48.546;9.896;2024-03-02T00:58:47;0.30;;;0.30;;
1402;SDS011;696;48.546;9.896;2024-03-02T01:01:13;0.30;;;0.30;;
1402;SDS011;696;48.546;9.896;2024-03-02T01:03:39;0.30;;;0.30;;
1402;SDS011;696;48.546;9.896;2024-03-02T01:06:04;0.30;;;0.30;;
1402;SDS011;696;48.546;9.896;2024-03-02T01:08:30;0.30;;;0.30;;
1402;SDS011;696;48.546;9.896;2024-03-02T01:10:55;0.20;;;0.20;;
1402;SDS011;696;48.546;9.896;2024-03-02T01:13:24;0.30;;;0.30;;
1402;SDS011;696;48.546;9.896;2024-03-02T01:15:49;0.30;;;0.30;;
1402;SDS011;696;48.546;9.896;2024-03-02T01:18:15;0.30;;;0.30;;
1402;SDS011;696;48.546;9.896;2024-03-02T01:20:41;0.30;;;0.30;;
1402;SDS011;696;48.546;9.896;2024-03-02T01:23:06;0.30;;;0.30;;
1402;SDS011;696;48.546;9.896;2024-03-02T01:25:31;0.20;;;0.20;;
1402;SDS011;696;48.546;9.896;2024-03-02T01:27:57;0.30;;;0.30;;
1402;SDS011;696;48.546;9.896;2024-03-02T01:30:22;0.30;;;0.30;;
1402;SDS011;696;48.546;9.896;2024-03-02T01:32:48;0.30;;;0.30;;
1402;SDS011;696;48.546;9.896;2024-03-02T01:35:13;0.30;;;0.30;;
1402;SDS011;696;48.546;9.896;2024-03-02T01:37:39;0.20;;;0.20;;
1402;SDS011;696;48.546;9.896;2024-03-02T01:40:05;0.30;;;0.30;;
1402;SDS011;696;48.546;9.896;2024-03-02T01:42:34;0.20;;;0.20;;
1402;SDS011;696;48.546;9.896;2024-03-02T01:45:01;0.30;;;0.30;;
1402;SDS011;696;48.546;9.896;2024-03-02T01:47:27;0.30;;;0.30;;
1402;SDS011;696;48.546;9.896;2024-03-02T01:49:52;0.32;;;0.32;;
1402;SDS011;696;48.546;9.896;2024-03-02T01:52:17;0.30;;;0.30;;
1402;SDS011;696;48.546;9.896;2024-03-02T01:54:43;0.30;;;0.30;;
1402;SDS011;696;48.546;9.896;2024-03-02T01:57:09;0.30;;;0.30;;
1402;SDS011;696;48.546;9.896;2024-03-02T01:59:34;0.20;;;0.20;;
1402;SDS011;696;48.546;9.896;2024-03-02T02:02:00;0.20;;;0.20;;
1402;SDS011;696;48.546;9.896;2024-03-02T02:04:26;0.20;;;0.20;;
1402;SDS011;696;48.546;9.896;2024-03-02T02:06:53;0.30;;;0.30;;
1402;SDS011;696;48.546;9.896;2024-03-02T02:09:19;0.20;;;0.20;;
1402;SDS011;696;48.546;9.896;2024-03-02T02:11:44;0.20;;;0.20;;
1402;SDS011;696;48.546;9.896;2024-03-02T02:14:09;0.30;;;0.30;;
1402;SDS011;696;48.546;9.896;2024-03-02T02:16:35;0.30;;;0.30;;
1402;SDS011;696;48.546;9.896;2024-03-02T02:19:01;0.20;;;0.20;;
1402;SDS011;696;48.546;9.896;2024-03-02T02:21:26;0.20;;;0.20;;
1402;SDS011;696;48.546;9.896;2024-03-02T02:23:52;0.30;;;0.30;;
1402;SDS011;696;48.546;9.896;2024-03-02T02:26:17;0.22;;;0.22;;
1402;SDS011;696;48.546;9.896;2024-03-02T02:28:43;0.30;;;0.30;;
1402;SDS011;696;48.546;9.896;2024-03-02T02:31:17;0.28;;;0.28;;
1402;SDS011;696;48.546;9.896;2024-03-02T02:33:42;0.30;;;0.30;;
1402;SDS011;696;48.546;9.896;2024-03-02T02:36:08;0.20;;;0.20;;
1402;SDS011;696;48.546;9.896;2024-03-02T02:38:36;0.28;;;0.28;;
1402;SDS011;696;48.546;9.896;2024-03-02T02:41:04;0.28;;;0.28;;
1402;SDS011;696;48.546;9.896;2024-03-02T02:43:29;0.20;;;0.20;;
1402;SDS011;696;48.546;9.896;2024-03-02T02:45:54;0.30;;;0.30;;
1402;SDS011;696;48.546;9.896;2024-03-02T02:48:20;0.30;;;0.30;;
1402;SDS011;696;48.546;9.896;2024-03-02T02:50:45;0.30;;;0.30;;
1402;SDS011;696;48.546;9.896;2024-03-02T02:53:11;0.30;;;0.30;;
1402;SDS011;696;48.546;9.896;2024-03-02T02:55:36;0.30;;;0.30;;
1402;SDS011;696;48.546;9.896;2024-03-02T02:58:05;0.30;;;0.30;;
1402;SDS011;696;48.546;9.896;2024-03-02T03:00:33;0.20;;;0.20;;
1402;SDS011;696;48.546;9.896;2024-03-02T03:02:58;0.40;;;0.40;;
1402;SDS011;696;48.546;9.896;2024-03-02T03:05:24;0.30;;;0.30;;
1402;SDS011;696;48.546;9.896;2024-03-02T03:07:49;0.32;;;0.32;;
1402;SDS011;696;48.546;9.896;2024-03-02T03:10:15;0.30;;;0.30;;
1402;SDS011;696;48.546;9.896;2024-03-02T03:12:41;0.30;;;0.30;;
1402;SDS011;696;48.546;9.896;2024-03-02T03:15:08;0.30;;;0.30;;
1402;SDS011;696;48.546;9.896;2024-03-02T03:17:34;0.30;;;0.30;;
1402;SDS011;696;48.546;9.896;2024-03-02T03:20:00;0.30;;;0.30;;
1402;SDS011;696;48.546;9.896;2024-03-02T03:22:26;0.30;;;0.30;;
1402;SDS011;696;48.546;9.896;2024-03-02T03:24:52;0.30;;;0.30;;
1402;SDS011;696;48.546;9.896;2024-03-02T03:27:17;0.32;;;0.32;;
1402;SDS011;696;48.546;9.896;2024-03-02T03:29:43;0.30;;;0.30;;
1402;SDS011;696;48.546;9.896;2024-03-02T03:32:08;0.30;;;0.30;;
1402;SDS011;696;48.546;9.896;2024-03-02T03:34:34;0.38;;;0.38;;
1402;SDS011;696;48.546;9.896;2024-03-02T03:36:59;0.30;;;0.30;;
1402;SDS011;696;48.546;9.896;2024-03-02T03:39:25;0.20;;;0.20;;
1402;SDS011;696;48.546;9.896;2024-03-02T03:41:50;0.20;;;0.20;;
1402;SDS011;696;48.546;9.896;2024-03-02T03:44:15;0.30;;;0.30;;
1402;SDS011;696;48.546;9.896;2024-03-02T03:46:41;0.30;;;0.30;;
1402;SDS011;696;48.546;9.896;2024-03-02T03:49:06;0.20;;;0.20;;
1402;SDS011;696;48.546;9.896;2024-03-02T03:51:32;0.30;;;0.30;;
1402;SDS011;696;48.546;9.896;2024-03-02T03:53:58;0.30;;;0.30;;
1402;SDS011;696;48.546;9.896;2024-03-02T03:56:23;0.30;;;0.30;;
1402;SDS011;696;48.546;9.896;2024-03-02T03:58:49;0.20;;;0.20;;
1402;SDS011;696;48.546;9.896;2024-03-02T04:01:14;0.30;;;0.30;;
1402;SDS011;696;48.546;9.896;2024-03-02T04:03:39;0.30;;;0.30;;
1402;SDS011;696;48.546;9.896;2024-03-02T04:06:05;0.28;;;0.28;;
1402;SDS011;696;48.546;9.896;2024-03-02T04:08:30;0.30;;;0.30;;
1402;SDS011;696;48.546;9.896;2024-03-02T04:10:56;0.30;;;0.30;;
1402;SDS011;696;48.546;9.896;2024-03-02T04:13:21;0.20;;;0.20;;
1402;SDS011;696;48.546;9.896;2024-03-02T04:15:47;0.30;;;0.30;;
1402;SDS011;696;48.546;9.896;2024-03-02T04:18:12;0.30;;;0.30;;
1402;SDS011;696;48.546;9.896;2024-03-02T04:20:37;0.20;;;0.20;;
1402;SDS011;696;48.546;9.896;2024-03-02T04:23:03;0.30;;;0.30;;
1402;SDS011;696;48.546;9.896;2024-03-02T04:25:28;0.30;;;0.30;;
1402;SDS011;696;48.546;9.896;2024-03-02T04:27:54;0.20;;;0.20;;
1402;SDS011;696;48.546;9.896;2024-03-02T04:30:19;0.38;;;0.38;;
1402;SDS011;696;48.546;9.896;2024-03-02T04:32:45;0.25;;;0.25;;
1402;SDS011;696;48.546;9.896;2024-03-02T04:35:11;0.30;;;0.30;;
1402;SDS011;696;48.546;9.896;2024-03-02T04:37:38;0.20;;;0.20;;
1402;SDS011;696;48.546;9.896;2024-03-02T04:40:04;0.40;;;0.40;;
1402;SDS011;696;48.546;9.896;2024-03-02T04:42:33;0.25;;;0.25;;
1402;SDS011;696;48.546;9.896;2024-03-02T04:44:58;0.20;;;0.20;;
1402;SDS011;696;48.546;9.896;2024-03-02T04:47:24;0.30;;;0.30;;
1402;SDS011;696;48.546;9.896;2024-03-02T04:49:49;0.30;;;0.30;;
1402;SDS011;696;48.546;9.896;2024-03-02T04:52:15;0.30;;;0.30;;
1402;SDS011;696;48.546;9.896;2024-03-02T04:54:41;0.30;;;0.30;;
1402;SDS011;696;48.546;9.896;2024-03-02T04:57:25;0.30;;;0.30;;
1402;SDS011;696;48.546;9.896;2024-03-02T04:59:50;0.30;;;0.30;;
1402;SDS011;696;48.546;9.896;2024-03-02T05:02:16;0.20;;;0.20;;
1402;SDS011;696;48.546;9.896;2024-03-02T05:04:41;0.30;;;0.30;;
1402;SDS011;696;48.546;9.896;2024-03-02T05:07:07;0.30;;;0.30;;
1402;SDS011;696;48.546;9.896;2024-03-02T05:09:32;0.40;;;0.40;;
1402;SDS011;696;48.546;9.896;2024-03-02T05:11:58;0.30;;;0.30;;
1402;SDS011;696;48.546;9.896;2024-03-02T05:14:41;0.22;;;0.22;;
1402;SDS011;696;48.546;9.896;2024-03-02T05:17:06;0.30;;;0.30;;
1402;SDS011;696;48.546;9.896;2024-03-02T05:19:32;0.30;;;0.30;;
1402;SDS011;696;48.546;9.896;2024-03-02T05:21:57;0.30;;;0.30;;
1402;SDS011;696;48.546;9.896;2024-03-02T05:24:23;0.32;;;0.32;;
1402;SDS011;696;48.546;9.896;2024-03-02T05:26:48;0.30;;;0.30;;
1402;SDS011;696;48.546;9.896;2024-03-02T05:29:14;0.30;;;0.30;;
1402;SDS011;696;48.546;9.896;2024-03-02T05:31:39;0.30;;;0.30;;
1402;SDS011;696;48.546;9.896;2024-03-02T05:34:08;0.20;;;0.20;;
1402;SDS011;696;48.546;9.896;2024-03-02T05:36:33;0.30;;;0.30;;
1402;SDS011;696;48.546;9.896;2024-03-02T05:38:59;0.30;;;0.30;;
1402;SDS011;696;48.546;9.896;2024-03-02T05:41:25;0.30;;;0.30;;
1402;SDS011;696;48.546;9.896;2024-03-02T05:43:51;0.30;;;0.30;;
1402;SDS011;696;48.546;9.896;2024-03-02T05:46:17;0.30;;;0.30;;
1402;SDS011;696;48.546;9.896;2024-03-02T05:48:42;0.30;;;0.30;;
1402;SDS011;696;48.546;9.896;2024-03-02T05:51:07;0.20;;;0.20;;
1402;SDS011;696;48.546;9.896;2024-03-02T05:53:33;0.20;;;0.20;;
1402;SDS011;696;48.546;9.896;2024-03-02T05:55:58;0.30;;;0.30;;
1402;SDS011;696;48.546;9.896;2024-03-02T05:58:24;0.30;;;0.30;;
1402;SDS011;696;48.546;9.896;2024-03-02T06:01:08;0.22;;;0.22;;
1402;SDS011;696;48.546;9.896;2024-03-02T06:03:34;0.30;;;0.30;;
1402;SDS011;696;48.546;9.896;2024-03-02T06:05:59;0.20;;;0.20;;
1402;SDS011;696;48.546;9.896;2024-03-02T06:08:24;0.30;;;0.30;;
1402;SDS011;696;48.546;9.896;2024-03-02T06:10:50;0.30;;;0.30;;
1402;SDS011;696;48.546;9.896;2024-03-02T06:13:15;0.30;;;0.30;;
1402;SDS011;696;48.546;9.896;2024-03-02T06:15:41;0.30;;;0.30;;
1402;SDS011;696;48.546;9.896;2024-03-02T06:18:06;0.30;;;0.30;;
1402;SDS011;696;48.546;9.896;2024-03-02T06:20:32;0.30;;;0.30;;
1402;SDS011;696;48.546;9.896;2024-03-02T06:22:58;0.40;;;0.40;;
1402;SDS011;696;48.546;9.896;2024-03-02T06:25:23;0.30;;;0.30;;
1402;SDS011;696;48.546;9.896;2024-03-02T06:27:49;0.20;;;0.20;;
1402;SDS011;696;48.546;9.896;2024-03-02T06:30:14;0.30;;;0.30;;
1402;SDS011;696;48.546;9.896;2024-03-02T06:32:39;0.30;;;0.30;;
1402;SDS011;696;48.546;9.896;2024-03-02T06:35:05;0.22;;;0.22;;
1402;SDS011;696;48.546;9.896;2024-03-02T06:37:33;0.22;;;0.22;;
1402;SDS011;696;48.546;9.896;2024-03-02T06:39:58;0.20;;;0.20;;
1402;SDS011;696;48.546;9.896;2024-03-02T06:42:24;0.30;;;0.30;;
1402;SDS011;696;48.546;9.896;2024-03-02T06:44:49;0.32;;;0.32;;
1402;SDS011;696;48.546;9.896;2024-03-02T06:47:15;0.30;;;0.30;;
1402;SDS011;696;48.546;9.896;2024-03-02T06:49:41;0.38;;;0.38;;
1402;SDS011;696;48.546;9.896;2024-03-02T06:52:07;0.40;;;0.40;;
1402;SDS011;696;48.546;9.896;2024-03-02T06:54:32;0.30;;;0.30;;
1402;SDS011;696;48.546;9.896;2024-03-02T06:56:59;0.30;;;0.30;;
1402;SDS011;696;48.546;9.896;2024-03-02T06:59:25;0.30;;;0.30;;
1402;SDS011;696;48.546;9.896;2024-03-02T07:01:50;0.30;;;0.30;;
1402;SDS011;696;48.546;9.896;2024-03-02T07:04:15;0.40;;;0.40;;
1402;SDS011;696;48.546;9.896;2024-03-02T07:06:41;0.30;;;0.30;;
1402;SDS011;696;48.546;9.896;2024-03-02T07:09:06;0.30;;;0.30;;
1402;SDS011;696;48.546;9.896;2024-03-02T07:11:35;0.35;;;0.35;;
1402;SDS011;696;48.546;9.896;2024-03-02T07:14:01;0.30;;;0.30;;
1402;SDS011;696;48.546;9.896;2024-03-02T07:16:26;0.30;;;0.30;;
1402;SDS011;696;48.546;9.896;2024-03-02T07:18:57;0.30;;;0.30;;
1402;SDS011;696;48.546;9.896;2024-03-02T07:21:24;0.20;;;0.20;;
1402;SDS011;696;48.546;9.896;2024-03-02T07:23:49;0.30;;;0.30;;
1402;SDS011;696;48.546;9.896;2024-03-02T07:26:15;0.30;;;0.30;;
1402;SDS011;696;48.546;9.896;2024-03-02T07:28:43;0.22;;;0.22;;
1402;SDS011;696;48.546;9.896;2024-03-02T07:31:09;0.30;;;0.30;;
1402;SDS011;696;48.546;9.896;2024-03-02T07:33:35;0.20;;;0.20;;
1402;SDS011;696;48.546;9.896;2024-03-02T07:36:00;0.30;;;0.30;;
1402;SDS011;696;48.546;9.896;2024-03-02T07:38:26;0.20;;;0.20;;
1402;SDS011;696;48.546;9.896;2024-03-02T07:40:52;0.30;;;0.30;;
1402;SDS011;696;48.546;9.896;2024-03-02T07:43:18;0.30;;;0.30;;
1402;SDS011;696;48.546;9.896;2024-03-02T07:45:47;0.30;;;0.30;;
1402;SDS011;696;48.546;9.896;2024-03-02T07:48:13;0.28;;;0.28;;
1402;SDS011;696;48.546;9.896;2024-03-02T07:50:38;0.20;;;0.20;;
1402;SDS011;696;48.546;9.896;2024-03-02T07:53:04;0.30;;;0.30;;
1402;SDS011;696;48.546;9.896;2024-03-02T07:55:30;0.22;;;0.22;;
1402;SDS011;696;48.546;9.896;2024-03-02T07:57:56;0.30;;;0.30;;
1402;SDS011;696;48.546;9.896;2024-03-02T08:00:21;0.30;;;0.30;;
1402;SDS011;696;48.546;9.896;2024-03-02T08:02:47;0.20;;;0.20;;
1402;SDS011;696;48.546;9.896;2024-03-02T08:05:13;0.25;;;0.25;;
1402;SDS011;696;48.546;9.896;2024-03-02T08:07:38;0.30;;;0.30;;
1402;SDS011;696;48.546;9.896;2024-03-02T08:10:04;0.30;;;0.30;;
1402;SDS011;696;48.546;9.896;2024-03-02T08:12:30;0.20;;;0.20;;
1402;SDS011;696;48.546;9.896;2024-03-02T08:14:55;0.25;;;0.25;;
1402;SDS011;696;48.546;9.896;2024-03-02T08:17:21;0.20;;;0.20;;
1402;SDS011;696;48.546;9.896;2024-03-02T08:19:46;0.30;;;0.30;;
1402;SDS011;696;48.546;9.896;2024-03-02T08:22:13;0.20;;;0.20;;
1402;SDS011;696;48.546;9.896;2024-03-02T08:24:40;0.20;;;0.20;;
1402;SDS011;696;48.546;9.896;2024-03-02T08:27:05;0.20;;;0.20;;
1402;SDS011;696;48.546;9.896;2024-03-02T08:29:31;0.20;;;0.20;;
1402;SDS011;696;48.546;9.896;2024-03-02T08:31:56;0.20;;;0.20;;
1402;SDS011;696;48.546;9.896;2024-03-02T08:34:22;0.20;;;0.20;;
1402;SDS011;696;48.546;9.896;2024-03-02T08:36:47;0.20;;;0.20;;
1402;SDS011;696;48.546;9.896;2024-03-02T08:39:13;0.20;;;0.20;;
1402;SDS011;696;48.546;9.896;2024-03-02T08:41:49;0.30;;;0.30;;
1402;SDS011;696;48.546;9.896;2024-03-02T08:44:14;0.20;;;0.20;;
1402;SDS011;696;48.546;9.896;2024-03-02T08:46:40;0.20;;;0.20;;
1402;SDS011;696;48.546;9.896;2024-03-02T08:49:06;0.20;;;0.20;;
1402;SDS011;696;48.546;9.896;2024-03-02T08:51:31;0.20;;;0.20;;
1402;SDS011;696;48.546;9.896;2024-03-02T08:53:57;0.22;;;0.22;;
1402;SDS011;696;48.546;9.896;2024-03-02T08:56:23;0.20;;;0.20;;
1402;SDS011;696;48.546;9.896;2024-03-02T08:58:49;0.20;;;0.20;;
1402;SDS011;696;48.546;9.896;2024-03-02T09:01:15;0.28;;;0.28;;
1402;SDS011;696;48.546;9.896;2024-03-02T09:03:41;0.10;;;0.10;;
1402;SDS011;696;48.546;9.896;2024-03-02T09:06:09;0.30;;;0.30;;
1402;SDS011;696;48.546;9.896;2024-03-02T09:08:35;0.22;;;0.22;;
1402;SDS011;696;48.546;9.896;2024-03-02T09:11:01;0.20;;;0.20;;
1402;SDS011;696;48.546;9.896;2024-03-02T09:13:27;0.20;;;0.20;;
1402;SDS011;696;48.546;9.896;2024-03-02T09:15:54;0.20;;;0.20;;
1402;SDS011;696;48.546;9.896;2024-03-02T09:18:19;0.20;;;0.20;;
1402;SDS011;696;48.546;9.896;2024-03-02T09:20:44;0.20;;;0.20;;
1402;SDS011;696;48.546;9.896;2024-03-02T09:23:11;0.20;;;0.20;;
1402;SDS011;696;48.546;9.896;2024-03-02T09:25:36;0.20;;;0.20;;
1402;SDS011;696;48.546;9.896;2024-03-02T09:28:02;0.22;;;0.22;;
1402;SDS011;696;48.546;9.896;2024-03-02T09:30:28;0.20;;;0.20;;
1402;SDS011;696;48.546;9.896;2024-03-02T09:32:53;0.20;;;0.20;;
1402;SDS011;696;48.546;9.896;2024-03-02T09:35:19;0.20;;;0.20;;
1402;SDS011;696;48.546;9.896;2024-03-02T09:37:45;0.20;;;0.20;;
1402;SDS011;696;48.546;9.896;2024-03-02T09:40:10;0.20;;;0.20;;
1402;SDS011;696;48.546;9.896;2024-03-02T09:42:36;0.20;;;0.20;;
1402;SDS011;696;48.546;9.896;2024-03-02T09:45:02;0.20;;;0.20;;
1402;SDS011;696;48.546;9.896;2024-03-02T09:47:28;0.20;;;0.20;;
1402;SDS011;696;48.546;9.896;2024-03-02T09:49:53;0.10;;;0.10;;
1402;SDS011;696;48.546;9.896;2024-03-02T09:52:20;0.20;;;0.20;;
1402;SDS011;696;48.546;9.896;2024-03-02T09:54:47;0.20;;;0.20;;
1402;SDS011;696;48.546;9.896;2024-03-02T09:57:12;0.20;;;0.20;;
1402;SDS011;696;48.546;9.896;2024-03-02T09:59:38;0.30;;;0.30;;
1402;SDS011;696;48.546;9.896;2024-03-02T10:02:03;0.20;;;0.20;;
1402;SDS011;696;48.546;9.896;2024-03-02T10:04:32;0.30;;;0.30;;
1402;SDS011;696;48.546;9.896;2024-03-02T10:07:10;0.20;;;0.20;;
1402;SDS011;696;48.546;9.896;2024-03-02T10:09:39;0.17;;;0.17;;
1402;SDS011;696;48.546;9.896;2024-03-02T10:12:09;0.20;;;0.20;;
1402;SDS011;696;48.546;9.896;2024-03-02T10:14:36;0.10;;;0.10;;
1402;SDS011;696;48.546;9.896;2024-03-02T10:17:12;0.20;;;0.20;;
1402;SDS011;696;48.546;9.896;2024-03-02T10:19:38;0.20;;;0.20;;
1402;SDS011;696;48.546;9.896;2024-03-02T10:22:07;0.10;;;0.10;;
1402;SDS011;696;48.546;9.896;2024-03-02T10:24:40;0.10;;;0.10;;
1402;SDS011;696;48.546;9.896;2024-03-02T10:27:10;0.20;;;0.20;;
1402;SDS011;696;48.546;9.896;2024-03-02T10:29:40;0.20;;;0.20;;
1402;SDS011;696;48.546;9.896;2024-03-02T10:32:05;0.10;;;0.10;;
1402;SDS011;696;48.546;9.896;2024-03-02T10:34:34;0.10;;;0.10;;
1402;SDS011;696;48.546;9.896;2024-03-02T10:37:00;0.10;;;0.10;;
1402;SDS011;696;48.546;9.896;2024-03-02T10:39:26;0.15;;;0.15;;
1402;SDS011;696;48.546;9.896;2024-03-02T10:41:51;0.13;;;0.13;;
1402;SDS011;696;48.546;9.896;2024-03-02T10:44:18;0.20;;;0.20;;
1402;SDS011;696;48.546;9.896;2024-03-02T10:46:44;0.20;;;0.20;;
1402;SDS011;696;48.546;9.896;2024-03-02T10:49:10;0.20;;;0.20;;
1402;SDS011;696;48.546;9.896;2024-03-02T10:51:36;0.20;;;0.20;;
1402;SDS011;696;48.546;9.896;2024-03-02T10:54:02;0.10;;;0.10;;
1402;SDS011;696;48.546;9.896;2024-03-02T10:56:29;0.10;;;0.10;;
1402;SDS011;696;48.546;9.896;2024-03-02T10:59:40;0.20;;;0.20;;
1402;SDS011;696;48.546;9.896;2024-03-02T11:01:47;0.20;;;0.20;;
1402;SDS011;696;48.546;9.896;2024-03-02T11:04:14;0.20;;;0.20;;
1402;SDS011;696;48.546;9.896;2024-03-02T11:06:43;0.20;;;0.20;;
1402;SDS011;696;48.546;9.896;2024-03-02T11:09:13;0.20;;;0.20;;
1402;SDS011;696;48.546;9.896;2024-03-02T11:11:43;0.20;;;0.20;;
1402;SDS011;696;48.546;9.896;2024-03-02T11:14:16;0.10;;;0.10;;
1402;SDS011;696;48.546;9.896;2024-03-02T11:16:42;0.20;;;0.20;;
1402;SDS011;696;48.546;9.896;2024-03-02T11:19:12;0.20;;;0.20;;
1402;SDS011;696;48.546;9.896;2024-03-02T11:21:38;0.10;;;0.10;;
1402;SDS011;696;48.546;9.896;2024-03-02T11:26:48;0.20;;;0.20;;
1402;SDS011;696;48.546;9.896;2024-03-02T11:32:00;0.20;;;0.20;;
1402;SDS011;696;48.546;9.896;2024-03-02T11:34:29;0.10;;;0.10;;
1402;SDS011;696;48.546;9.896;2024-03-02T11:36:55;0.10;;;0.10;;
1402;SDS011;696;48.546;9.896;2024-03-02T11:39:20;0.20;;;0.20;;
1402;SDS011;696;48.546;9.896;2024-03-02T11:41:46;0.20;;;0.20;;
1402;SDS011;696;48.546;9.896;2024-03-02T11:44:11;0.20;;;0.20;;
1402;SDS011;696;48.546;9.896;2024-03-02T11:46:39;0.20;;;0.20;;
1402;SDS011;696;48.546;9.896;2024-03-02T11:49:04;0.10;;;0.10;;
1402;SDS011;696;48.546;9.896;2024-03-02T11:51:30;0.13;;;0.13;;
1402;SDS011;696;48.546;9.896;2024-03-02T11:53:56;0.20;;;0.20;;
1402;SDS011;696;48.546;9.896;2024-03-02T11:56:23;0.20;;;0.20;;
1402;SDS011;696;48.546;9.896;2024-03-02T11:58:49;0.10;;;0.10;;
1402;SDS011;696;48.546;9.896;2024-03-02T12:01:18;0.20;;;0.20;;
1402;SDS011;696;48.546;9.896;2024-03-02T12:03:44;0.20;;;0.20;;
1402;SDS011;696;48.546;9.896;2024-03-02T12:06:10;0.17;;;0.17;;
1402;SDS011;696;48.546;9.896;2024-03-02T12:08:38;0.10;;;0.10;;
1402;SDS011;696;48.546;9.896;2024-03-02T12:11:03;0.10;;;0.10;;
1402;SDS011;696;48.546;9.896;2024-03-02T12:13:28;0.10;;;0.10;;
1402;SDS011;696;48.546;9.896;2024-03-02T12:15:54;0.17;;;0.17;;
1402;SDS011;696;48.546;9.896;2024-03-02T12:18:23;0.10;;;0.10;;
1402;SDS011;696;48.546;9.896;2024-03-02T12:20:49;0.10;;;0.10;;
1402;SDS011;696;48.546;9.896;2024-03-02T12:23:17;0.10;;;0.10;;
1402;SDS011;696;48.546;9.896;2024-03-02T12:25:43;0.10;;;0.10;;
1402;SDS011;696;48.546;9.896;2024-03-02T12:28:09;0.10;;;0.10;;
1402;SDS011;696;48.546;9.896;2024-03-02T12:30:34;0.10;;;0.10;;
1402;SDS011;696;48.546;9.896;2024-03-02T12:33:00;0.10;;;0.10;;
1402;SDS011;696;48.546;9.896;2024-03-02T12:35:26;0.10;;;0.10;;
1402;SDS011;696;48.546;9.896;2024-03-02T12:37:51;0.00;;;0.00;;
1402;SDS011;696;48.546;9.896;2024-03-02T12:40:18;0.00;;;0.00;;
1402;SDS011;696;48.546;9.896;2024-03-02T12:42:46;0.00;;;0.00;;
1402;SDS011;696;48.546;9.896;2024-03-02T12:45:12;0.00;;;0.00;;
1402;SDS011;696;48.546;9.896;2024-03-02T12:47:38;0.00;;;0.00;;
1402;SDS011;696;48.546;9.896;2024-03-02T12:50:05;0.00;;;0.00;;
1402;SDS011;696;48.546;9.896;2024-03-02T12:52:31;0.00;;;0.00;;
1402;SDS011;696;48.546;9.896;2024-03-02T12:55:00;0.00;;;0.00;;
1402;SDS011;696;48.546;9.896;2024-03-02T12:57:27;0.00;;;0.00;;
1402;SDS011;696;48.546;9.896;2024-03-02T12:59:57;0.00;;;0.00;;
1402;SDS011;696;48.546;9.896;2024-03-02T13:02:34;0.00;;;0.00;;
1402;SDS011;696;48.546;9.896;2024-03-02T13:05:00;0.00;;;0.00;;
1402;SDS011;696;48.546;9.896;2024-03-02T13:07:25;0.00;;;0.00;;
1402;SDS011;696;48.546;9.896;2024-03-02T13:09:51;0.00;;;0.00;;
1402;SDS011;696;48.546;9.896;2024-03-02T13:12:17;0.00;;;0.00;;
1402;SDS011;696;48.546;9.896;2024-03-02T13:14:44;0.00;;;0.00;;
1402;SDS011;696;48.546;9.896;2024-03-02T13:17:09;0.00;;;0.00;;
1402;SDS011;696;48.546;9.896;2024-03-02T13:19:35;0.00;;;0.00;;
1402;SDS011;696;48.546;9.896;2024-03-02T13:22:00;0.00;;;0.00;;
1402;SDS011;696;48.546;9.896;2024-03-02T13:24:28;0.00;;;0.00;;
1402;SDS011;696;48.546;9.896;2024-03-02T13:26:55;0.00;;;0.00;;
1402;SDS011;696;48.546;9.896;2024-03-02T13:29:22;0.00;;;0.00;;
1402;SDS011;696;48.546;9.896;2024-03-02T13:31:48;0.00;;;0.00;;
1402;SDS011;696;48.546;9.896;2024-03-02T13:34:14;0.00;;;0.00;;
1402;SDS011;696;48.546;9.896;2024-03-02T13:36:39;0.00;;;0.00;;
1402;SDS011;696;48.546;9.896;2024-03-02T13:39:04;0.00;;;0.00;;
1402;SDS011;696;48.546;9.896;2024-03-02T13:41:31;0.00;;;0.00;;
1402;SDS011;696;48.546;9.896;2024-03-02T13:43:57;0.00;;;0.00;;
1402;SDS011;696;48.546;9.896;2024-03-02T13:46:22;0.00;;;0.00;;
1402;SDS011;696;48.546;9.896;2024-03-02T13:48:48;0.00;;;0.00;;
1402;SDS011;696;48.546;9.896;2024-03-02T13:51:13;0.00;;;0.00;;
1402;SDS011;696;48.546;9.896;2024-03-02T13:53:38;0.00;;;0.00;;
1402;SDS011;696;48.546;9.896;2024-03-02T13:56:05;0.00;;;0.00;;
1402;SDS011;696;48.546;9.896;2024-03-02T13:58:30;0.00;;;0.00;;
1402;SDS011;696;48.546;9.896;2024-03-02T14:00:56;0.00;;;0.00;;
1402;SDS011;696;48.546;9.896;2024-03-02T14:03:22;0.00;;;0.00;;
1402;SDS011;696;48.546;9.896;2024-03-02T14:05:48;0.00;;;0.00;;
1402;SDS011;696;48.546;9.896;2024-03-02T14:08:15;0.00;;;0.00;;
1402;SDS011;696;48.546;9.896;2024-03-02T14:10:40;0.00;;;0.00;;
1402;SDS011;696;48.546;9.896;2024-03-02T14:13:07;0.00;;;0.00;;
1402;SDS011;696;48.546;9.896;2024-03-02T14:15:33;0.00;;;0.00;;
1402;SDS011;696;48.546;9.896;2024-03-02T14:17:58;0.00;;;0.00;;
1402;SDS011;696;48.546;9.896;2024-03-02T14:20:23;0.00;;;0.00;;
1402;SDS011;696;48.546;9.896;2024-03-02T14:22:49;0.00;;;0.00;;
1402;SDS011;696;48.546;9.896;2024-03-02T14:25:14;0.00;;;0.00;;
1402;SDS011;696;48.546;9.896;2024-03-02T14:27:40;0.00;;;0.00;;
1402;SDS011;696;48.546;9.896;2024-03-02T14:30:05;0.00;;;0.00;;
1402;SDS011;696;48.546;9.896;2024-03-02T14:32:31;0.00;;;0.00;;
1402;SDS011;696;48.546;9.896;2024-03-02T14:34:57;0.00;;;0.00;;
1402;SDS011;696;48.546;9.896;2024-03-02T14:37:22;0.00;;;0.00;;
1402;SDS011;696;48.546;9.896;2024-03-02T14:39:48;0.00;;;0.00;;
1402;SDS011;696;48.546;9.896;2024-03-02T14:42:13;0.00;;;0.00;;
1402;SDS011;696;48.546;9.896;2024-03-02T14:44:38;0.00;;;0.00;;
1402;SDS011;696;48.546;9.896;2024-03-02T14:47:04;0.00;;;0.00;;
1402;SDS011;696;48.546;9.896;2024-03-02T14:49:30;0.00;;;0.00;;
1402;SDS011;696;48.546;9.896;2024-03-02T14:51:55;0.00;;;0.00;;
1402;SDS011;696;48.546;9.896;2024-03-02T14:54:21;0.00;;;0.00;;
1402;SDS011;696;48.546;9.896;2024-03-02T14:56:46;0.00;;;0.00;;
1402;SDS011;696;48.546;9.896;2024-03-02T14:59:11;0.10;;;0.10;;
1402;SDS011;696;48.546;9.896;2024-03-02T15:01:37;0.00;;;0.00;;
1402;SDS011;696;48.546;9.896;2024-03-02T15:04:02;0.00;;;0.00;;
1402;SDS011;696;48.546;9.896;2024-03-02T15:06:28;0.00;;;0.00;;
1402;SDS011;696;48.546;9.896;2024-03-02T15:08:53;0.00;;;0.00;;
1402;SDS011;696;48.546;9.896;2024-03-02T15:11:20;0.00;;;0.00;;
1402;SDS011;696;48.546;9.896;2024-03-02T15:13:47;0.00;;;0.00;;
1402;SDS011;696;48.546;9.896;2024-03-02T15:16:12;0.00;;;0.00;;
1402;SDS011;696;48.546;9.896;2024-03-02T15:18:37;0.00;;;0.00;;
1402;SDS011;696;48.546;9.896;2024-03-02T15:21:03;0.00;;;0.00;;
1402;SDS011;696;48.546;9.896;2024-03-02T15:23:28;0.10;;;0.10;;
1402;SDS011;696;48.546;9.896;2024-03-02T15:25:54;0.10;;;0.10;;
1402;SDS011;696;48.546;9.896;2024-03-02T15:28:20;0.10;;;0.10;;
1402;SDS011;696;48.546;9.896;2024-03-02T15:30:45;0.10;;;0.10;;
1402;SDS011;696;48.546;9.896;2024-03-02T15:33:11;0.10;;;0.10;;